sensor_id;sensor_type;location;lat;lon;timestamp;P1;durP1;ratioP1;P2;durP2;ratioP2
20042;SDS011;10182;52.896;6.496;2024-03-25T00:02:40;13.90;;;4.10;;
20042;SDS011;10182;52.896;6.496;2024-03-25T00:07:43;8.73;;;3.07;;
20042;SDS011;10182;52.896;6.496;2024-03-25T00:12:45;18.13;;;4.43;;
20042;SDS011;10182;52.896;6.496;2024-03-25T00:17:47;15.93;;;4.83;;
20042;SDS011;10182;52.896;6.496;2024-03-25T00:22:50;9.77;;;2.90;;
20042;SDS011;10182;52.896;6.496;2024-03-25T00:27:52;8.10;;;3.17;;
20042;SDS011;10182;52.896;6.496;2024-03-25T00:32:54;11.23;;;3.37;;
20042;SDS011;10182;52.896;6.496;2024-03-25T00:37:57;11.03;;;4.10;;
20042;SDS011;10182;52.896;6.496;2024-03-25T00:42:59;21.50;;;4.23;;
20042;SDS011;10182;52.896;6.496;2024-03-25T00:48:01;18.27;;;4.33;;
20042;SDS011;10182;52.896;6.496;2024-03-25T00:53:04;15.27;;;3.93;;
20042;SDS011;10182;52.896;6.496;2024-03-25T00:58:05;17.43;;;4.03;;
20042;SDS011;10182;52.896;6.496;2024-03-25T01:03:07;20.27;;;4.40;;
20042;SDS011;10182;52.896;6.496;2024-03-25T01:08:10;18.57;;;3.63;;
20042;SDS011;10182;52.896;6.496;2024-03-25T01:13:13;13.50;;;4.27;;
20042;SDS011;10182;52.896;6.496;2024-03-25T01:18:15;22.40;;;3.77;;
20042;SDS011;10182;52.896;6.496;2024-03-25T01:23:18;18.80;;;3.70;;
20042;SDS011;10182;52.896;6.496;2024-03-25T01:28:20;14.70;;;5.07;;
20042;SDS011;10182;52.896;6.496;2024-03-25T01:33:22;18.57;;;4.70;;
20042;SDS011;10182;52.896;6.496;2024-03-25T01:38:25;18.37;;;3.70;;
20042;SDS011;10182;52.896;6.496;2024-03-25T01:43:28;18.10;;;4.10;;
20042;SDS011;10182;52.896;6.496;2024-03-25T01:48:30;16.30;;;4.23;;
20042;SDS011;10182;52.896;6.496;2024-03-25T01:53:34;19.40;;;4.00;;
20042;SDS011;10182;52.896;6.496;2024-03-25T01:58:35;19.37;;;3.77;;
20042;SDS011;10182;52.896;6.496;2024-03-25T02:03:37;17.23;;;3.50;;
20042;SDS011;10182;52.896;6.496;2024-03-25T02:08:41;16.57;;;3.67;;
20042;SDS011;10182;52.896;6.496;2024-03-25T02:13:42;17.07;;;4.33;;
20042;SDS011;10182;52.896;6.496;2024-03-25T02:18:44;19.53;;;4.90;;
20042;SDS011;10182;52.896;6.496;2024-03-25T02:23:47;17.23;;;3.60;;
20042;SDS011;10182;52.896;6.496;2024-03-25T02:28:51;17.30;;;3.80;;
20042;SDS011;10182;52.896;6.496;2024-03-25T02:33:53;24.50;;;4.67;;
20042;SDS011;10182;52.896;6.496;2024-03-25T02:38:54;18.10;;;4.50;;
20042;SDS011;10182;52.896;6.496;2024-03-25T02:43:58;17.50;;;3.47;;
20042;SDS011;10182;52.896;6.496;2024-03-25T02:49:00;16.30;;;4.77;;
20042;SDS011;10182;52.896;6.496;2024-03-25T02:54:01;14.90;;;4.10;;
20042;SDS011;10182;52.896;6.496;2024-03-25T02:59:04;23.03;;;4.60;;
20042;SDS011;10182;52.896;6.496;2024-03-25T03:04:06;20.17;;;4.43;;
20042;SDS011;10182;52.896;6.496;2024-03-25T03:09:08;16.00;;;4.13;;
20042;SDS011;10182;52.896;6.496;2024-03-25T03:14:11;20.37;;;4.20;;
20042;SDS011;10182;52.896;6.496;2024-03-25T03:19:13;11.53;;;4.07;;
20042;SDS011;10182;52.896;6.496;2024-03-25T03:24:15;13.07;;;3.87;;
20042;SDS011;10182;52.896;6.496;2024-03-25T03:29:18;15.83;;;3.77;;
20042;SDS011;10182;52.896;6.496;2024-03-25T03:34:19;14.87;;;4.03;;
20042;SDS011;10182;52.896;6.496;2024-03-25T03:39:21;14.63;;;3.37;;
20042;SDS011;10182;52.896;6.496;2024-03-25T03:44:24;22.17;;;4.53;;
20042;SDS011;10182;52.896;6.496;2024-03-25T03:49:25;17.50;;;4.43;;
20042;SDS011;10182;52.896;6.496;2024-03-25T03:54:27;20.03;;;4.13;;
20042;SDS011;10182;52.896;6.496;2024-03-25T03:59:30;15.07;;;3.27;;
20042;SDS011;10182;52.896;6.496;2024-03-25T04:04:32;19.30;;;3.53;;
20042;SDS011;10182;52.896;6.496;2024-03-25T04:09:34;13.63;;;3.57;;
20042;SDS011;10182;52.896;6.496;2024-03-25T04:14:37;19.77;;;4.80;;
20042;SDS011;10182;52.896;6.496;2024-03-25T04:19:38;15.27;;;3.40;;
20042;SDS011;10182;52.896;6.496;2024-03-25T04:24:40;17.20;;;4.13;;
20042;SDS011;10182;52.896;6.496;2024-03-25T04:29:43;13.43;;;3.37;;
20042;SDS011;10182;52.896;6.496;2024-03-25T04:34:45;15.17;;;3.80;;
20042;SDS011;10182;52.896;6.496;2024-03-25T04:39:47;14.93;;;3.37;;
20042;SDS011;10182;52.896;6.496;2024-03-25T04:44:49;12.27;;;3.00;;
20042;SDS011;10182;52.896;6.496;2024-03-25T04:49:50;13.23;;;3.33;;
20042;SDS011;10182;52.896;6.496;2024-03-25T04:54:51;12.37;;;4.10;;
20042;SDS011;10182;52.896;6.496;2024-03-25T04:59:53;14.17;;;4.00;;
20042;SDS011;10182;52.896;6.496;2024-03-25T05:04:55;15.93;;;3.80;;
20042;SDS011;10182;52.896;6.496;2024-03-25T05:09:55;16.67;;;4.10;;
20042;SDS011;10182;52.896;6.496;2024-03-25T05:14:58;14.00;;;3.23;;
20042;SDS011;10182;52.896;6.496;2024-03-25T05:19:58;15.10;;;3.50;;
20042;SDS011;10182;52.896;6.496;2024-03-25T05:24:59;14.20;;;3.60;;
20042;SDS011;10182;52.896;6.496;2024-03-25T05:30:01;12.70;;;3.43;;
20042;SDS011;10182;52.896;6.496;2024-03-25T05:35:02;13.53;;;4.00;;
20042;SDS011;10182;52.896;6.496;2024-03-25T05:40:04;13.20;;;4.70;;
20042;SDS011;10182;52.896;6.496;2024-03-25T05:45:07;17.37;;;3.53;;
20042;SDS011;10182;52.896;6.496;2024-03-25T05:50:08;15.17;;;3.50;;
20042;SDS011;10182;52.896;6.496;2024-03-25T05:55:09;14.50;;;4.03;;
20042;SDS011;10182;52.896;6.496;2024-03-25T06:00:12;21.57;;;4.40;;
20042;SDS011;10182;52.896;6.496;2024-03-25T06:05:13;20.27;;;4.43;;
20042;SDS011;10182;52.896;6.496;2024-03-25T06:10:14;16.80;;;3.90;;
20042;SDS011;10182;52.896;6.496;2024-03-25T06:15:16;20.43;;;4.90;;
20042;SDS011;10182;52.896;6.496;2024-03-25T06:20:17;35.33;;;8.50;;
20042;SDS011;10182;52.896;6.496;2024-03-25T06:25:18;24.27;;;8.00;;
20042;SDS011;10182;52.896;6.496;2024-03-25T06:30:21;37.93;;;15.77;;
20042;SDS011;10182;52.896;6.496;2024-03-25T06:35:42;20.93;;;6.70;;
20042;SDS011;10182;52.896;6.496;2024-03-25T06:40:44;22.77;;;5.40;;
20042;SDS011;10182;52.896;6.496;2024-03-25T06:45:47;19.40;;;5.33;;
20042;SDS011;10182;52.896;6.496;2024-03-25T06:50:54;16.63;;;5.73;;
20042;SDS011;10182;52.896;6.496;2024-03-25T06:55:55;13.93;;;4.00;;
20042;SDS011;10182;52.896;6.496;2024-03-25T07:01:04;18.27;;;4.93;;
20042;SDS011;10182;52.896;6.496;2024-03-25T07:06:05;24.67;;;5.37;;
20042;SDS011;10182;52.896;6.496;2024-03-25T07:11:06;12.00;;;4.70;;
20042;SDS011;10182;52.896;6.496;2024-03-25T07:16:08;14.10;;;4.30;;
20042;SDS011;10182;52.896;6.496;2024-03-25T07:21:09;17.97;;;3.63;;
20042;SDS011;10182;52.896;6.496;2024-03-25T07:26:09;14.00;;;3.10;;
20042;SDS011;10182;52.896;6.496;2024-03-25T07:31:14;13.47;;;3.60;;
20042;SDS011;10182;52.896;6.496;2024-03-25T07:36:15;8.23;;;2.57;;
20042;SDS011;10182;52.896;6.496;2024-03-25T07:41:16;10.97;;;2.87;;
20042;SDS011;10182;52.896;6.496;2024-03-25T07:46:18;14.33;;;2.90;;
20042;SDS011;10182;52.896;6.496;2024-03-25T07:51:18;7.23;;;2.83;;
20042;SDS011;10182;52.896;6.496;2024-03-25T07:56:19;13.70;;;3.23;;
20042;SDS011;10182;52.896;6.496;2024-03-25T08:01:21;12.60;;;3.10;;
20042;SDS011;10182;52.896;6.496;2024-03-25T08:06:22;12.83;;;3.40;;
20042;SDS011;10182;52.896;6.496;2024-03-25T08:11:23;9.53;;;2.70;;
20042;SDS011;10182;52.896;6.496;2024-03-25T08:16:25;14.60;;;3.17;;
20042;SDS011;10182;52.896;6.496;2024-03-25T08:21:25;10.93;;;2.53;;
20042;SDS011;10182;52.896;6.496;2024-03-25T08:26:26;12.23;;;3.10;;
20042;SDS011;10182;52.896;6.496;2024-03-25T08:31:28;16.47;;;3.23;;
20042;SDS011;10182;52.896;6.496;2024-03-25T08:36:29;12.20;;;2.97;;
20042;SDS011;10182;52.896;6.496;2024-03-25T08:41:29;10.63;;;2.20;;
20042;SDS011;10182;52.896;6.496;2024-03-25T08:46:32;7.47;;;2.33;;
20042;SDS011;10182;52.896;6.496;2024-03-25T08:51:33;10.27;;;2.60;;
20042;SDS011;10182;52.896;6.496;2024-03-25T08:56:34;12.57;;;2.57;;
20042;SDS011;10182;52.896;6.496;2024-03-25T09:01:36;10.10;;;2.67;;
20042;SDS011;10182;52.896;6.496;2024-03-25T09:06:37;8.23;;;2.23;;
20042;SDS011;10182;52.896;6.496;2024-03-25T09:11:38;9.17;;;1.90;;
20042;SDS011;10182;52.896;6.496;2024-03-25T09:16:40;8.77;;;2.33;;
20042;SDS011;10182;52.896;6.496;2024-03-25T09:21:40;7.47;;;2.33;;
20042;SDS011;10182;52.896;6.496;2024-03-25T09:26:41;11.40;;;3.13;;
20042;SDS011;10182;52.896;6.496;2024-03-25T09:31:43;13.17;;;3.60;;
20042;SDS011;10182;52.896;6.496;2024-03-25T09:36:44;13.13;;;3.03;;
20042;SDS011;10182;52.896;6.496;2024-03-25T09:41:45;13.00;;;2.83;;
20042;SDS011;10182;52.896;6.496;2024-03-25T09:46:49;14.30;;;2.77;;
20042;SDS011;10182;52.896;6.496;2024-03-25T09:51:50;10.73;;;2.73;;
20042;SDS011;10182;52.896;6.496;2024-03-25T09:56:51;10.37;;;2.47;;
20042;SDS011;10182;52.896;6.496;2024-03-25T10:01:54;22.93;;;2.97;;
20042;SDS011;10182;52.896;6.496;2024-03-25T10:06:55;12.30;;;3.13;;
20042;SDS011;10182;52.896;6.496;2024-03-25T10:11:56;13.37;;;2.83;;
20042;SDS011;10182;52.896;6.496;2024-03-25T10:16:58;13.87;;;4.07;;
20042;SDS011;10182;52.896;6.496;2024-03-25T10:22:02;8.10;;;2.47;;
20042;SDS011;10182;52.896;6.496;2024-03-25T10:27:09;6.67;;;2.33;;
20042;SDS011;10182;52.896;6.496;2024-03-25T10:32:12;5.73;;;2.00;;
20042;SDS011;10182;52.896;6.496;2024-03-25T10:37:13;9.30;;;2.30;;
20042;SDS011;10182;52.896;6.496;2024-03-25T10:42:18;10.07;;;2.53;;
20042;SDS011;10182;52.896;6.496;2024-03-25T10:47:21;9.73;;;2.73;;
20042;SDS011;10182;52.896;6.496;2024-03-25T10:52:26;10.47;;;2.93;;
20042;SDS011;10182;52.896;6.496;2024-03-25T10:57:27;12.27;;;2.47;;
20042;SDS011;10182;52.896;6.496;2024-03-25T11:02:30;9.60;;;2.77;;
20042;SDS011;10182;52.896;6.496;2024-03-25T11:07:31;14.07;;;2.67;;
20042;SDS011;10182;52.896;6.496;2024-03-25T11:12:32;10.20;;;2.10;;
20042;SDS011;10182;52.896;6.496;2024-03-25T11:17:36;6.83;;;2.07;;
20042;SDS011;10182;52.896;6.496;2024-03-25T11:22:47;10.90;;;2.20;;
20042;SDS011;10182;52.896;6.496;2024-03-25T11:27:48;11.43;;;2.40;;
20042;SDS011;10182;52.896;6.496;2024-03-25T11:32:51;7.00;;;1.73;;
20042;SDS011;10182;52.896;6.496;2024-03-25T11:37:52;7.33;;;1.97;;
20042;SDS011;10182;52.896;6.496;2024-03-25T11:42:53;4.97;;;1.60;;
20042;SDS011;10182;52.896;6.496;2024-03-25T11:47:55;8.33;;;2.50;;
20042;SDS011;10182;52.896;6.496;2024-03-25T11:52:56;10.47;;;2.37;;
20042;SDS011;10182;52.896;6.496;2024-03-25T11:57:57;8.27;;;2.33;;
20042;SDS011;10182;52.896;6.496;2024-03-25T12:02:59;8.80;;;2.27;;
20042;SDS011;10182;52.896;6.496;2024-03-25T12:08:01;8.43;;;2.17;;
20042;SDS011;10182;52.896;6.496;2024-03-25T12:13:01;7.07;;;2.03;;
20042;SDS011;10182;52.896;6.496;2024-03-25T12:18:04;8.13;;;1.87;;
20042;SDS011;10182;52.896;6.496;2024-03-25T12:23:06;7.23;;;1.77;;
20042;SDS011;10182;52.896;6.496;2024-03-25T12:28:10;6.10;;;1.67;;
20042;SDS011;10182;52.896;6.496;2024-03-25T12:33:12;6.20;;;2.43;;
20042;SDS011;10182;52.896;6.496;2024-03-25T12:38:23;8.90;;;2.27;;
20042;SDS011;10182;52.896;6.496;2024-03-25T12:43:24;7.13;;;2.23;;
20042;SDS011;10182;52.896;6.496;2024-03-25T12:48:27;7.40;;;2.00;;
20042;SDS011;10182;52.896;6.496;2024-03-25T12:53:28;6.57;;;2.40;;
20042;SDS011;10182;52.896;6.496;2024-03-25T12:58:29;6.40;;;1.87;;
20042;SDS011;10182;52.896;6.496;2024-03-25T13:03:31;7.33;;;1.90;;
20042;SDS011;10182;52.896;6.496;2024-03-25T13:08:31;7.00;;;1.70;;
20042;SDS011;10182;52.896;6.496;2024-03-25T13:13:32;8.83;;;2.63;;
20042;SDS011;10182;52.896;6.496;2024-03-25T13:18:34;6.67;;;1.57;;
20042;SDS011;10182;52.896;6.496;2024-03-25T13:23:35;4.43;;;1.60;;
20042;SDS011;10182;52.896;6.496;2024-03-25T13:28:36;7.77;;;1.93;;
20042;SDS011;10182;52.896;6.496;2024-03-25T13:33:38;7.37;;;1.70;;
20042;SDS011;10182;52.896;6.496;2024-03-25T13:38:39;7.33;;;1.70;;
20042;SDS011;10182;52.896;6.496;2024-03-25T13:43:41;3.10;;;1.63;;
20042;SDS011;10182;52.896;6.496;2024-03-25T13:48:44;7.73;;;1.83;;
20042;SDS011;10182;52.896;6.496;2024-03-25T13:53:47;5.03;;;1.80;;
20042;SDS011;10182;52.896;6.496;2024-03-25T13:58:54;4.50;;;1.90;;
20042;SDS011;10182;52.896;6.496;2024-03-25T14:03:56;7.47;;;1.67;;
20042;SDS011;10182;52.896;6.496;2024-03-25T14:08:56;3.27;;;1.20;;
20042;SDS011;10182;52.896;6.496;2024-03-25T14:13:57;7.37;;;1.40;;
20042;SDS011;10182;52.896;6.496;2024-03-25T14:18:59;4.70;;;1.40;;
20042;SDS011;10182;52.896;6.496;2024-03-25T14:24:04;5.17;;;1.70;;
20042;SDS011;10182;52.896;6.496;2024-03-25T14:29:06;7.10;;;2.03;;
20042;SDS011;10182;52.896;6.496;2024-03-25T14:34:08;6.90;;;2.00;;
20042;SDS011;10182;52.896;6.496;2024-03-25T14:39:08;6.87;;;1.50;;
20042;SDS011;10182;52.896;6.496;2024-03-25T14:44:09;3.47;;;1.40;;
20042;SDS011;10182;52.896;6.496;2024-03-25T14:49:11;4.77;;;1.20;;
20042;SDS011;10182;52.896;6.496;2024-03-25T14:54:12;7.60;;;2.10;;
20042;SDS011;10182;52.896;6.496;2024-03-25T14:59:12;4.73;;;1.30;;
20042;SDS011;10182;52.896;6.496;2024-03-25T15:04:15;7.17;;;1.43;;
20042;SDS011;10182;52.896;6.496;2024-03-25T15:09:16;5.30;;;1.40;;
20042;SDS011;10182;52.896;6.496;2024-03-25T15:14:16;7.27;;;1.70;;
20042;SDS011;10182;52.896;6.496;2024-03-25T15:19:18;4.93;;;1.50;;
20042;SDS011;10182;52.896;6.496;2024-03-25T15:24:19;4.50;;;1.37;;
20042;SDS011;10182;52.896;6.496;2024-03-25T15:29:20;6.27;;;1.40;;
20042;SDS011;10182;52.896;6.496;2024-03-25T15:34:22;3.10;;;0.77;;
20042;SDS011;10182;52.896;6.496;2024-03-25T15:39:23;3.87;;;1.50;;
20042;SDS011;10182;52.896;6.496;2024-03-25T15:44:23;3.50;;;1.40;;
20042;SDS011;10182;52.896;6.496;2024-03-25T15:49:25;3.37;;;1.20;;
20042;SDS011;10182;52.896;6.496;2024-03-25T15:54:26;6.43;;;1.50;;
20042;SDS011;10182;52.896;6.496;2024-03-25T15:59:27;7.13;;;1.93;;
20042;SDS011;10182;52.896;6.496;2024-03-25T16:04:29;2.77;;;0.80;;
20042;SDS011;10182;52.896;6.496;2024-03-25T16:09:30;3.43;;;1.10;;
20042;SDS011;10182;52.896;6.496;2024-03-25T16:14:31;2.10;;;0.93;;
20042;SDS011;10182;52.896;6.496;2024-03-25T16:19:34;3.30;;;0.80;;
20042;SDS011;10182;52.896;6.496;2024-03-25T16:24:35;2.63;;;0.97;;
20042;SDS011;10182;52.896;6.496;2024-03-25T16:29:36;3.60;;;1.00;;
20042;SDS011;10182;52.896;6.496;2024-03-25T16:34:38;4.20;;;1.63;;
20042;SDS011;10182;52.896;6.496;2024-03-25T16:39:39;6.53;;;2.70;;
20042;SDS011;10182;52.896;6.496;2024-03-25T16:44:39;4.80;;;3.70;;
20042;SDS011;10182;52.896;6.496;2024-03-25T16:49:41;4.40;;;2.20;;
20042;SDS011;10182;52.896;6.496;2024-03-25T16:54:42;2.90;;;1.60;;
20042;SDS011;10182;52.896;6.496;2024-03-25T16:59:43;3.57;;;0.83;;
20042;SDS011;10182;52.896;6.496;2024-03-25T17:04:45;2.47;;;1.20;;
20042;SDS011;10182;52.896;6.496;2024-03-25T17:09:46;5.33;;;1.47;;
20042;SDS011;10182;52.896;6.496;2024-03-25T17:14:47;2.50;;;1.17;;
20042;SDS011;10182;52.896;6.496;2024-03-25T17:19:49;4.10;;;1.20;;
20042;SDS011;10182;52.896;6.496;2024-03-25T17:24:50;5.77;;;2.60;;
20042;SDS011;10182;52.896;6.496;2024-03-25T17:29:51;8.03;;;3.73;;
20042;SDS011;10182;52.896;6.496;2024-03-25T17:34:53;4.43;;;3.10;;
20042;SDS011;10182;52.896;6.496;2024-03-25T17:39:53;6.57;;;2.50;;
20042;SDS011;10182;52.896;6.496;2024-03-25T17:44:54;5.17;;;1.50;;
20042;SDS011;10182;52.896;6.496;2024-03-25T17:49:57;6.20;;;1.83;;
20042;SDS011;10182;52.896;6.496;2024-03-25T17:54:57;7.67;;;1.97;;
20042;SDS011;10182;52.896;6.496;2024-03-25T17:59:58;7.47;;;3.07;;
20042;SDS011;10182;52.896;6.496;2024-03-25T18:05:00;7.07;;;2.90;;
20042;SDS011;10182;52.896;6.496;2024-03-25T18:10:01;7.07;;;3.40;;
20042;SDS011;10182;52.896;6.496;2024-03-25T18:15:02;23.73;;;16.33;;
20042;SDS011;10182;52.896;6.496;2024-03-25T18:20:05;7.13;;;2.20;;
20042;SDS011;10182;52.896;6.496;2024-03-25T18:25:06;6.40;;;3.60;;
20042;SDS011;10182;52.896;6.496;2024-03-25T18:30:08;4.37;;;2.43;;
20042;SDS011;10182;52.896;6.496;2024-03-25T18:35:11;8.83;;;2.17;;
20042;SDS011;10182;52.896;6.496;2024-03-25T18:40:12;6.80;;;2.50;;
20042;SDS011;10182;52.896;6.496;2024-03-25T18:45:13;6.20;;;2.53;;
20042;SDS011;10182;52.896;6.496;2024-03-25T18:50:15;7.67;;;5.23;;
20042;SDS011;10182;52.896;6.496;2024-03-25T18:55:16;4.50;;;2.50;;
20042;SDS011;10182;52.896;6.496;2024-03-25T19:00:20;4.43;;;2.50;;
20042;SDS011;10182;52.896;6.496;2024-03-25T19:05:22;4.63;;;3.00;;
20042;SDS011;10182;52.896;6.496;2024-03-25T19:10:22;12.30;;;5.67;;
20042;SDS011;10182;52.896;6.496;2024-03-25T19:15:23;10.07;;;2.97;;
20042;SDS011;10182;52.896;6.496;2024-03-25T19:20:25;6.87;;;2.97;;
20042;SDS011;10182;52.896;6.496;2024-03-25T19:25:26;8.73;;;4.60;;
20042;SDS011;10182;52.896;6.496;2024-03-25T19:30:27;8.93;;;3.00;;
20042;SDS011;10182;52.896;6.496;2024-03-25T19:35:29;11.07;;;3.90;;
20042;SDS011;10182;52.896;6.496;2024-03-25T19:40:30;10.83;;;3.17;;
20042;SDS011;10182;52.896;6.496;2024-03-25T19:45:31;5.60;;;2.50;;
20042;SDS011;10182;52.896;6.496;2024-03-25T19:50:33;5.73;;;2.83;;
20042;SDS011;10182;52.896;6.496;2024-03-25T19:55:34;3.60;;;1.97;;
20042;SDS011;10182;52.896;6.496;2024-03-25T20:00:34;7.57;;;3.30;;
20042;SDS011;10182;52.896;6.496;2024-03-25T20:05:37;9.03;;;2.50;;
20042;SDS011;10182;52.896;6.496;2024-03-25T20:10:38;8.57;;;3.07;;
20042;SDS011;10182;52.896;6.496;2024-03-25T20:15:38;7.90;;;3.07;;
20042;SDS011;10182;52.896;6.496;2024-03-25T20:20:40;5.27;;;2.70;;
20042;SDS011;10182;52.896;6.496;2024-03-25T20:25:42;7.07;;;2.77;;
20042;SDS011;10182;52.896;6.496;2024-03-25T20:30:43;7.00;;;3.40;;
20042;SDS011;10182;52.896;6.496;2024-03-25T20:35:45;5.47;;;3.03;;
20042;SDS011;10182;52.896;6.496;2024-03-25T20:40:46;10.13;;;3.40;;
20042;SDS011;10182;52.896;6.496;2024-03-25T20:45:47;7.10;;;2.80;;
20042;SDS011;10182;52.896;6.496;2024-03-25T20:56:12;11.50;;;3.20;;
20042;SDS011;10182;52.896;6.496;2024-03-25T21:01:13;12.17;;;3.70;;
20042;SDS011;10182;52.896;6.496;2024-03-25T21:06:15;9.23;;;3.53;;
20042;SDS011;10182;52.896;6.496;2024-03-25T21:11:15;11.80;;;3.73;;
20042;SDS011;10182;52.896;6.496;2024-03-25T21:16:16;7.73;;;3.70;;
20042;SDS011;10182;52.896;6.496;2024-03-25T21:21:18;9.67;;;3.63;;
20042;SDS011;10182;52.896;6.496;2024-03-25T21:26:19;9.00;;;3.63;;
20042;SDS011;10182;52.896;6.496;2024-03-25T21:31:20;9.93;;;3.43;;
20042;SDS011;10182;52.896;6.496;2024-03-25T21:36:22;13.90;;;4.20;;
20042;SDS011;10182;52.896;6.496;2024-03-25T21:41:22;6.47;;;3.50;;
20042;SDS011;10182;52.896;6.496;2024-03-25T21:46:23;5.67;;;3.57;;
20042;SDS011;10182;52.896;6.496;2024-03-25T21:51:25;10.73;;;3.93;;
20042;SDS011;10182;52.896;6.496;2024-03-25T21:56:26;7.30;;;3.57;;
20042;SDS011;10182;52.896;6.496;2024-03-25T22:01:26;8.33;;;3.50;;
20042;SDS011;10182;52.896;6.496;2024-03-25T22:06:28;10.07;;;3.30;;
20042;SDS011;10182;52.896;6.496;2024-03-25T22:11:29;8.70;;;3.77;;
20042;SDS011;10182;52.896;6.496;2024-03-25T22:16:30;7.43;;;3.90;;
20042;SDS011;10182;52.896;6.496;2024-03-25T22:21:32;10.23;;;3.70;;
20042;SDS011;10182;52.896;6.496;2024-03-25T22:26:33;8.00;;;3.87;;
20042;SDS011;10182;52.896;6.496;2024-03-25T22:31:33;8.70;;;3.70;;
20042;SDS011;10182;52.896;6.496;2024-03-25T22:36:35;8.10;;;4.10;;
20042;SDS011;10182;52.896;6.496;2024-03-25T22:41:36;9.60;;;3.97;;
20042;SDS011;10182;52.896;6.496;2024-03-25T22:46:37;7.77;;;3.20;;
20042;SDS011;10182;52.896;6.496;2024-03-25T22:51:39;5.10;;;3.87;;
20042;SDS011;10182;52.896;6.496;2024-03-25T22:56:40;9.83;;;3.87;;
20042;SDS011;10182;52.896;6.496;2024-03-25T23:01:40;5.90;;;3.80;;
20042;SDS011;10182;52.896;6.496;2024-03-25T23:06:42;11.47;;;3.93;;
20042;SDS011;10182;52.896;6.496;2024-03-25T23:11:44;7.90;;;3.60;;
20042;SDS011;10182;52.896;6.496;2024-03-25T23:16:45;9.60;;;3.87;;
20042;SDS011;10182;52.896;6.496;2024-03-25T23:21:47;5.63;;;3.73;;
20042;SDS011;10182;52.896;6.496;2024-03-25T23:26:48;8.70;;;3.80;;
20042;SDS011;10182;52.896;6.496;2024-03-25T23:31:48;8.40;;;3.63;;
20042;SDS011;10182;52.896;6.496;2024-03-25T23:36:50;7.67;;;3.30;;
20042;SDS011;10182;52.896;6.496;2024-03-25T23:41:51;8.87;;;3.40;;
20042;SDS011;10182;52.896;6.496;2024-03-25T23:46:52;9.80;;;3.90;;
20042;SDS011;10182;52.896;6.496;2024-03-25T23:51:54;9.20;;;3.33;;
20042;SDS011;10182;52.896;6.496;2024-03-25T23:56:54;8.50;;;3.30;;
